sensor_id;sensor_type;location;lat;lon;timestamp;temperature;humidity
1461;DHT22;724;49.910;12.530;2023-03-14T00:01:50;8.00;99.90
1461;DHT22;724;49.910;12.530;2023-03-14T00:04:17;7.90;99.90
1461;DHT22;724;49.910;12.530;2023-03-14T00:06:44;7.90;99.90
1461;DHT22;724;49.910;12.530;2023-03-14T00:09:15;7.80;99.90
1461;DHT22;724;49.910;12.530;2023-03-14T00:11:43;7.90;99.90
1461;DHT22;724;49.910;12.530;2023-03-14T00:14:11;7.90;99.90
1461;DHT22;724;49.910;12.530;2023-03-14T00:16:38;7.90;99.90
1461;DHT22;724;49.910;12.530;2023-03-14T00:19:05;7.80;99.90
1461;DHT22;724;49.910;12.530;2023-03-14T00:21:32;7.80;99.90
1461;DHT22;724;49.910;12.530;2023-03-14T00:23:58;7.80;99.90
1461;DHT22;724;49.910;12.530;2023-03-14T00:26:25;7.70;99.90
1461;DHT22;724;49.910;12.530;2023-03-14T00:28:54;7.70;99.90
1461;DHT22;724;49.910;12.530;2023-03-14T00:31:21;7.70;99.90
1461;DHT22;724;49.910;12.530;2023-03-14T00:33:47;7.60;99.90
1461;DHT22;724;49.910;12.530;2023-03-14T00:36:16;7.60;99.90
1461;DHT22;724;49.910;12.530;2023-03-14T00:38:44;7.60;99.90
1461;DHT22;724;49.910;12.530;2023-03-14T00:41:13;7.60;99.90
1461;DHT22;724;49.910;12.530;2023-03-14T00:43:40;7.70;99.90
1461;DHT22;724;49.910;12.530;2023-03-14T00:46:08;7.70;99.90
1461;DHT22;724;49.910;12.530;2023-03-14T00:48:35;7.70;99.90
1461;DHT22;724;49.910;12.530;2023-03-14T00:51:03;7.70;99.90
1461;DHT22;724;49.910;12.530;2023-03-14T00:53:30;7.60;99.90
1461;DHT22;724;49.910;12.530;2023-03-14T00:55:57;7.70;99.90
1461;DHT22;724;49.910;12.530;2023-03-14T00:58:28;7.60;99.90
1461;DHT22;724;49.910;12.530;2023-03-14T01:00:55;7.60;99.90
1461;DHT22;724;49.910;12.530;2023-03-14T01:03:23;7.60;99.90
1461;DHT22;724;49.910;12.530;2023-03-14T01:05:50;7.60;99.90
1461;DHT22;724;49.910;12.530;2023-03-14T01:08:17;7.60;99.90
1461;DHT22;724;49.910;12.530;2023-03-14T01:10:43;7.60;99.90
1461;DHT22;724;49.910;12.530;2023-03-14T01:13:10;7.70;99.90
1461;DHT22;724;49.910;12.530;2023-03-14T01:15:37;7.70;48.80
1461;DHT22;724;49.910;12.530;2023-03-14T01:18:04;7.70;1.00
1461;DHT22;724;49.910;12.530;2023-03-14T01:20:32;7.70;1.00
1461;DHT22;724;49.910;12.530;2023-03-14T01:22:59;7.60;1.00
1461;DHT22;724;49.910;12.530;2023-03-14T01:25:26;7.60;1.00
1461;DHT22;724;49.910;12.530;2023-03-14T01:27:53;7.60;11.30
1461;DHT22;724;49.910;12.530;2023-03-14T01:30:19;7.60;99.20
1461;DHT22;724;49.910;12.530;2023-03-14T01:32:46;7.50;99.90
1461;DHT22;724;49.910;12.530;2023-03-14T01:35:13;7.60;99.90
1461;DHT22;724;49.910;12.530;2023-03-14T01:37:41;7.50;99.90
1461;DHT22;724;49.910;12.530;2023-03-14T01:40:10;7.50;99.90
1461;DHT22;724;49.910;12.530;2023-03-14T01:42:44;7.50;99.90
1461;DHT22;724;49.910;12.530;2023-03-14T01:48:11;7.40;99.90
1461;DHT22;724;49.910;12.530;2023-03-14T01:50:38;7.40;99.90
1461;DHT22;724;49.910;12.530;2023-03-14T01:53:06;7.40;99.90
1461;DHT22;724;49.910;12.530;2023-03-14T01:55:33;7.40;99.90
1461;DHT22;724;49.910;12.530;2023-03-14T01:58:03;7.40;99.90
1461;DHT22;724;49.910;12.530;2023-03-14T02:00:30;7.40;99.90
1461;DHT22;724;49.910;12.530;2023-03-14T02:02:59;7.40;99.90
1461;DHT22;724;49.910;12.530;2023-03-14T02:05:29;7.40;99.90
1461;DHT22;724;49.910;12.530;2023-03-14T02:07:59;7.40;99.90
1461;DHT22;724;49.910;12.530;2023-03-14T02:10:30;7.30;99.90
1461;DHT22;724;49.910;12.530;2023-03-14T02:13:01;7.30;99.90
1461;DHT22;724;49.910;12.530;2023-03-14T02:15:29;7.30;99.90
1461;DHT22;724;49.910;12.530;2023-03-14T02:17:56;7.30;99.90
1461;DHT22;724;49.910;12.530;2023-03-14T02:20:31;7.30;99.90
1461;DHT22;724;49.910;12.530;2023-03-14T02:23:00;7.30;99.90
1461;DHT22;724;49.910;12.530;2023-03-14T02:25:39;7.30;99.90
1461;DHT22;724;49.910;12.530;2023-03-14T02:28:07;7.30;99.90
1461;DHT22;724;49.910;12.530;2023-03-14T02:30:34;7.30;99.90
1461;DHT22;724;49.910;12.530;2023-03-14T02:33:05;7.30;99.90
1461;DHT22;724;49.910;12.530;2023-03-14T02:35:37;7.30;99.90
1461;DHT22;724;49.910;12.530;2023-03-14T02:38:11;7.40;99.90
1461;DHT22;724;49.910;12.530;2023-03-14T02:40:41;7.40;99.90
1461;DHT22;724;49.910;12.530;2023-03-14T02:43:09;7.40;99.90
1461;DHT22;724;49.910;12.530;2023-03-14T02:45:39;7.40;99.90
1461;DHT22;724;49.910;12.530;2023-03-14T02:48:09;7.30;99.90
1461;DHT22;724;49.910;12.530;2023-03-14T02:50:37;7.30;99.90
1461;DHT22;724;49.910;12.530;2023-03-14T02:53:05;7.30;99.90
1461;DHT22;724;49.910;12.530;2023-03-14T02:55:31;7.30;99.90
1461;DHT22;724;49.910;12.530;2023-03-14T02:57:58;7.30;99.90
1461;DHT22;724;49.910;12.530;2023-03-14T03:00:26;7.20;99.90
1461;DHT22;724;49.910;12.530;2023-03-14T03:02:53;7.20;99.90
1461;DHT22;724;49.910;12.530;2023-03-14T03:05:20;7.20;99.90
1461;DHT22;724;49.910;12.530;2023-03-14T03:07:46;7.20;99.90
1461;DHT22;724;49.910;12.530;2023-03-14T03:10:13;7.10;99.90
1461;DHT22;724;49.910;12.530;2023-03-14T03:12:40;7.10;99.90
1461;DHT22;724;49.910;12.530;2023-03-14T03:15:08;7.10;99.90
1461;DHT22;724;49.910;12.530;2023-03-14T03:17:36;7.10;99.90
1461;DHT22;724;49.910;12.530;2023-03-14T03:20:03;7.10;99.90
1461;DHT22;724;49.910;12.530;2023-03-14T03:22:34;7.10;99.90
1461;DHT22;724;49.910;12.530;2023-03-14T03:25:01;7.10;99.90
1461;DHT22;724;49.910;12.530;2023-03-14T03:27:29;7.10;99.90
1461;DHT22;724;49.910;12.530;2023-03-14T03:29:56;7.10;99.90
1461;DHT22;724;49.910;12.530;2023-03-14T03:32:23;7.10;99.90
1461;DHT22;724;49.910;12.530;2023-03-14T03:34:51;7.10;99.90
1461;DHT22;724;49.910;12.530;2023-03-14T03:37:18;7.00;99.90
1461;DHT22;724;49.910;12.530;2023-03-14T03:39:45;7.00;99.90
1461;DHT22;724;49.910;12.530;2023-03-14T03:42:11;7.10;99.90
1461;DHT22;724;49.910;12.530;2023-03-14T03:44:38;7.00;99.90
1461;DHT22;724;49.910;12.530;2023-03-14T03:47:05;7.00;99.90
1461;DHT22;724;49.910;12.530;2023-03-14T03:49:32;7.00;99.90
1461;DHT22;724;49.910;12.530;2023-03-14T03:52:00;7.00;99.90
1461;DHT22;724;49.910;12.530;2023-03-14T03:54:27;7.00;99.90
1461;DHT22;724;49.910;12.530;2023-03-14T03:56:55;7.00;99.90
1461;DHT22;724;49.910;12.530;2023-03-14T03:59:22;7.00;99.90
1461;DHT22;724;49.910;12.530;2023-03-14T04:01:48;7.00;99.90
1461;DHT22;724;49.910;12.530;2023-03-14T04:04:15;7.00;99.90
1461;DHT22;724;49.910;12.530;2023-03-14T04:06:42;6.90;99.90
1461;DHT22;724;49.910;12.530;2023-03-14T04:09:11;6.90;99.90
1461;DHT22;724;49.910;12.530;2023-03-14T04:11:38;6.90;99.90
1461;DHT22;724;49.910;12.530;2023-03-14T04:14:05;6.90;99.90
1461;DHT22;724;49.910;12.530;2023-03-14T04:16:32;6.80;99.90
1461;DHT22;724;49.910;12.530;2023-03-14T04:18:59;6.90;99.90
1461;DHT22;724;49.910;12.530;2023-03-14T04:21:26;6.90;99.90
1461;DHT22;724;49.910;12.530;2023-03-14T04:23:52;6.80;99.90
1461;DHT22;724;49.910;12.530;2023-03-14T04:26:21;6.90;99.90
1461;DHT22;724;49.910;12.530;2023-03-14T04:28:47;6.80;99.90
1461;DHT22;724;49.910;12.530;2023-03-14T04:31:18;6.80;99.90
1461;DHT22;724;49.910;12.530;2023-03-14T04:33:45;6.80;99.90
1461;DHT22;724;49.910;12.530;2023-03-14T04:36:12;6.80;99.90
1461;DHT22;724;49.910;12.530;2023-03-14T04:38:39;6.70;99.90
1461;DHT22;724;49.910;12.530;2023-03-14T04:41:06;6.70;99.90
1461;DHT22;724;49.910;12.530;2023-03-14T04:43:34;6.80;99.90
1461;DHT22;724;49.910;12.530;2023-03-14T04:46:01;6.80;99.90
1461;DHT22;724;49.910;12.530;2023-03-14T04:48:28;6.80;99.90
1461;DHT22;724;49.910;12.530;2023-03-14T04:50:55;6.70;99.90
1461;DHT22;724;49.910;12.530;2023-03-14T04:53:22;6.80;99.90
1461;DHT22;724;49.910;12.530;2023-03-14T04:55:49;6.80;99.90
1461;DHT22;724;49.910;12.530;2023-03-14T04:58:16;6.70;99.90
1461;DHT22;724;49.910;12.530;2023-03-14T05:00:45;6.70;99.90
1461;DHT22;724;49.910;12.530;2023-03-14T05:03:12;6.70;99.90
1461;DHT22;724;49.910;12.530;2023-03-14T05:05:40;6.70;99.90
1461;DHT22;724;49.910;12.530;2023-03-14T05:08:07;6.70;99.90
1461;DHT22;724;49.910;12.530;2023-03-14T05:10:34;6.70;99.90
1461;DHT22;724;49.910;12.530;2023-03-14T05:13:00;6.70;99.90
1461;DHT22;724;49.910;12.530;2023-03-14T05:15:27;6.60;99.90
1461;DHT22;724;49.910;12.530;2023-03-14T05:17:55;6.60;99.90
1461;DHT22;724;49.910;12.530;2023-03-14T05:20:22;6.60;99.90
1461;DHT22;724;49.910;12.530;2023-03-14T05:22:48;6.60;99.90
1461;DHT22;724;49.910;12.530;2023-03-14T05:25:15;6.60;99.90
1461;DHT22;724;49.910;12.530;2023-03-14T05:27:42;6.50;99.90
1461;DHT22;724;49.910;12.530;2023-03-14T05:30:10;6.50;99.90
1461;DHT22;724;49.910;12.530;2023-03-14T05:32:37;6.50;99.90
1461;DHT22;724;49.910;12.530;2023-03-14T05:35:05;6.50;99.90
1461;DHT22;724;49.910;12.530;2023-03-14T05:37:32;6.50;99.90
1461;DHT22;724;49.910;12.530;2023-03-14T05:40:00;6.50;99.90
1461;DHT22;724;49.910;12.530;2023-03-14T05:42:26;6.50;99.90
1461;DHT22;724;49.910;12.530;2023-03-14T05:44:53;6.50;99.90
1461;DHT22;724;49.910;12.530;2023-03-14T05:47:20;6.50;99.90
1461;DHT22;724;49.910;12.530;2023-03-14T05:49:46;6.50;99.90
1461;DHT22;724;49.910;12.530;2023-03-14T05:52:15;6.50;99.90
1461;DHT22;724;49.910;12.530;2023-03-14T05:54:42;6.50;99.90
1461;DHT22;724;49.910;12.530;2023-03-14T05:57:08;6.50;99.90
1461;DHT22;724;49.910;12.530;2023-03-14T05:59:35;6.50;99.90
1461;DHT22;724;49.910;12.530;2023-03-14T06:02:02;6.50;99.90
1461;DHT22;724;49.910;12.530;2023-03-14T06:04:29;6.50;99.90
1461;DHT22;724;49.910;12.530;2023-03-14T06:06:55;6.50;99.90
1461;DHT22;724;49.910;12.530;2023-03-14T06:09:24;6.50;99.90
1461;DHT22;724;49.910;12.530;2023-03-14T06:11:50;6.50;99.90
1461;DHT22;724;49.910;12.530;2023-03-14T06:14:17;6.50;99.90
1461;DHT22;724;49.910;12.530;2023-03-14T06:16:44;6.50;99.90
1461;DHT22;724;49.910;12.530;2023-03-14T06:19:13;6.50;99.90
1461;DHT22;724;49.910;12.530;2023-03-14T06:21:40;6.50;99.90
1461;DHT22;724;49.910;12.530;2023-03-14T06:24:06;6.60;99.90
1461;DHT22;724;49.910;12.530;2023-03-14T06:26:35;6.60;99.90
1461;DHT22;724;49.910;12.530;2023-03-14T06:29:01;6.60;99.90
1461;DHT22;724;49.910;12.530;2023-03-14T06:31:29;6.60;99.90
1461;DHT22;724;49.910;12.530;2023-03-14T06:33:56;6.60;99.90
1461;DHT22;724;49.910;12.530;2023-03-14T06:36:23;6.60;99.90
1461;DHT22;724;49.910;12.530;2023-03-14T06:38:50;6.70;66.70
1461;DHT22;724;49.910;12.530;2023-03-14T06:41:17;6.70;1.00
1461;DHT22;724;49.910;12.530;2023-03-14T06:43:45;6.70;1.00
1461;DHT22;724;49.910;12.530;2023-03-14T06:46:12;6.70;1.00
1461;DHT22;724;49.910;12.530;2023-03-14T06:48:41;6.80;1.00
1461;DHT22;724;49.910;12.530;2023-03-14T06:51:07;6.80;1.00
1461;DHT22;724;49.910;12.530;2023-03-14T06:53:34;6.80;1.00
1461;DHT22;724;49.910;12.530;2023-03-14T06:56:01;6.80;1.00
1461;DHT22;724;49.910;12.530;2023-03-14T06:58:28;6.80;1.00
1461;DHT22;724;49.910;12.530;2023-03-14T07:00:56;6.80;1.00
1461;DHT22;724;49.910;12.530;2023-03-14T07:03:24;6.80;1.00
1461;DHT22;724;49.910;12.530;2023-03-14T07:05:51;6.90;99.90
1461;DHT22;724;49.910;12.530;2023-03-14T07:08:17;6.90;99.90
1461;DHT22;724;49.910;12.530;2023-03-14T07:10:44;7.00;99.90
1461;DHT22;724;49.910;12.530;2023-03-14T07:13:11;7.00;1.00
1461;DHT22;724;49.910;12.530;2023-03-14T07:15:38;7.00;1.00
1461;DHT22;724;49.910;12.530;2023-03-14T07:18:06;7.10;1.00
1461;DHT22;724;49.910;12.530;2023-03-14T07:20:32;7.10;1.00
1461;DHT22;724;49.910;12.530;2023-03-14T07:22:59;7.10;1.00
1461;DHT22;724;49.910;12.530;2023-03-14T07:25:28;7.10;1.00
1461;DHT22;724;49.910;12.530;2023-03-14T07:27:55;7.20;1.00
1461;DHT22;724;49.910;12.530;2023-03-14T07:30:21;7.30;1.00
1461;DHT22;724;49.910;12.530;2023-03-14T07:32:48;7.10;1.00
1461;DHT22;724;49.910;12.530;2023-03-14T07:35:16;7.20;1.00
1461;DHT22;724;49.910;12.530;2023-03-14T07:37:43;7.20;1.00
1461;DHT22;724;49.910;12.530;2023-03-14T07:40:11;7.20;1.00
1461;DHT22;724;49.910;12.530;2023-03-14T07:42:40;7.10;1.00
1461;DHT22;724;49.910;12.530;2023-03-14T07:45:08;7.20;1.00
1461;DHT22;724;49.910;12.530;2023-03-14T07:47:34;7.30;1.00
1461;DHT22;724;49.910;12.530;2023-03-14T07:50:01;7.60;1.00
1461;DHT22;724;49.910;12.530;2023-03-14T07:52:30;7.80;1.00
1461;DHT22;724;49.910;12.530;2023-03-14T07:54:56;8.50;99.90
1461;DHT22;724;49.910;12.530;2023-03-14T07:57:23;7.80;99.90
1461;DHT22;724;49.910;12.530;2023-03-14T07:59:50;8.00;99.90
1461;DHT22;724;49.910;12.530;2023-03-14T08:02:17;8.50;1.00
1461;DHT22;724;49.910;12.530;2023-03-14T08:04:47;9.10;1.00
1461;DHT22;724;49.910;12.530;2023-03-14T08:07:14;8.50;1.00
1461;DHT22;724;49.910;12.530;2023-03-14T08:09:42;9.80;1.00
1461;DHT22;724;49.910;12.530;2023-03-14T08:12:09;10.70;1.00
1461;DHT22;724;49.910;12.530;2023-03-14T08:14:36;9.80;1.00
1461;DHT22;724;49.910;12.530;2023-03-14T08:17:03;9.40;1.00
1461;DHT22;724;49.910;12.530;2023-03-14T08:19:30;9.90;1.00
1461;DHT22;724;49.910;12.530;2023-03-14T08:21:57;10.10;1.00
1461;DHT22;724;49.910;12.530;2023-03-14T08:24:24;9.80;1.00
1461;DHT22;724;49.910;12.530;2023-03-14T08:26:52;9.00;1.00
1461;DHT22;724;49.910;12.530;2023-03-14T08:29:19;8.40;1.00
1461;DHT22;724;49.910;12.530;2023-03-14T08:31:46;8.00;20.60
1461;DHT22;724;49.910;12.530;2023-03-14T08:34:14;7.80;99.90
1461;DHT22;724;49.910;12.530;2023-03-14T08:36:41;7.70;99.90
1461;DHT22;724;49.910;12.530;2023-03-14T08:39:07;7.80;99.90
1461;DHT22;724;49.910;12.530;2023-03-14T08:41:35;7.90;1.00
1461;DHT22;724;49.910;12.530;2023-03-14T08:44:07;7.70;1.00
1461;DHT22;724;49.910;12.530;2023-03-14T08:46:33;7.90;1.00
1461;DHT22;724;49.910;12.530;2023-03-14T08:49:00;7.80;1.00
1461;DHT22;724;49.910;12.530;2023-03-14T08:51:27;7.80;99.90
1461;DHT22;724;49.910;12.530;2023-03-14T08:53:54;7.70;99.90
1461;DHT22;724;49.910;12.530;2023-03-14T08:56:21;7.50;1.00
1461;DHT22;724;49.910;12.530;2023-03-14T08:58:48;7.60;1.00
1461;DHT22;724;49.910;12.530;2023-03-14T09:01:16;7.60;1.00
1461;DHT22;724;49.910;12.530;2023-03-14T09:03:44;7.50;1.00
1461;DHT22;724;49.910;12.530;2023-03-14T09:06:11;7.50;1.00
1461;DHT22;724;49.910;12.530;2023-03-14T09:08:38;7.50;1.00
1461;DHT22;724;49.910;12.530;2023-03-14T09:11:07;7.50;1.00
1461;DHT22;724;49.910;12.530;2023-03-14T09:13:36;7.50;1.00
1461;DHT22;724;49.910;12.530;2023-03-14T09:16:03;7.50;1.00
1461;DHT22;724;49.910;12.530;2023-03-14T09:18:31;7.40;1.00
1461;DHT22;724;49.910;12.530;2023-03-14T09:20:58;7.40;1.00
1461;DHT22;724;49.910;12.530;2023-03-14T09:23:25;7.50;1.00
1461;DHT22;724;49.910;12.530;2023-03-14T09:25:54;7.50;1.00
1461;DHT22;724;49.910;12.530;2023-03-14T09:28:21;7.50;1.00
1461;DHT22;724;49.910;12.530;2023-03-14T09:30:48;7.60;1.00
1461;DHT22;724;49.910;12.530;2023-03-14T09:33:15;7.80;1.00
1461;DHT22;724;49.910;12.530;2023-03-14T09:35:43;7.90;99.90
1461;DHT22;724;49.910;12.530;2023-03-14T09:38:10;7.80;99.90
1461;DHT22;724;49.910;12.530;2023-03-14T10:01:01;7.70;99.90
1461;DHT22;724;49.910;12.530;2023-03-14T10:03:32;7.80;99.90
1461;DHT22;724;49.910;12.530;2023-03-14T10:05:59;7.90;99.90
1461;DHT22;724;49.910;12.530;2023-03-14T10:08:26;8.10;24.60
1461;DHT22;724;49.910;12.530;2023-03-14T10:10:53;8.40;1.00
1461;DHT22;724;49.910;12.530;2023-03-14T10:13:21;8.50;1.00
1461;DHT22;724;49.910;12.530;2023-03-14T10:15:53;8.50;1.00
1461;DHT22;724;49.910;12.530;2023-03-14T10:18:22;8.50;1.00
1461;DHT22;724;49.910;12.530;2023-03-14T10:21:01;8.60;1.00
1461;DHT22;724;49.910;12.530;2023-03-14T10:23:30;8.50;1.00
1461;DHT22;724;49.910;12.530;2023-03-14T10:26:05;8.50;1.00
1461;DHT22;724;49.910;12.530;2023-03-14T10:28:34;8.40;1.00
1461;DHT22;724;49.910;12.530;2023-03-14T10:31:04;8.40;1.00
1461;DHT22;724;49.910;12.530;2023-03-14T10:33:34;8.40;1.00
1461;DHT22;724;49.910;12.530;2023-03-14T10:36:02;8.40;1.00
1461;DHT22;724;49.910;12.530;2023-03-14T10:38:30;8.30;1.00
1461;DHT22;724;49.910;12.530;2023-03-14T10:40:58;8.20;1.00
1461;DHT22;724;49.910;12.530;2023-03-14T10:43:26;8.30;1.00
1461;DHT22;724;49.910;12.530;2023-03-14T10:45:55;8.30;1.00
1461;DHT22;724;49.910;12.530;2023-03-14T10:48:29;8.30;1.00
1461;DHT22;724;49.910;12.530;2023-03-14T10:51:03;8.40;1.00
1461;DHT22;724;49.910;12.530;2023-03-14T10:53:39;8.50;1.00
1461;DHT22;724;49.910;12.530;2023-03-14T10:56:07;9.50;1.00
1461;DHT22;724;49.910;12.530;2023-03-14T10:58:38;9.90;1.00
1461;DHT22;724;49.910;12.530;2023-03-14T11:01:21;10.10;99.90
1461;DHT22;724;49.910;12.530;2023-03-14T11:03:56;10.20;99.90
1461;DHT22;724;49.910;12.530;2023-03-14T11:06:31;9.70;99.90
1461;DHT22;724;49.910;12.530;2023-03-14T11:09:03;10.00;99.90
1461;DHT22;724;49.910;12.530;2023-03-14T11:11:32;10.00;99.90
1461;DHT22;724;49.910;12.530;2023-03-14T11:14:08;10.40;99.90
1461;DHT22;724;49.910;12.530;2023-03-14T11:16:46;10.00;99.90
1461;DHT22;724;49.910;12.530;2023-03-14T11:19:45;9.70;99.90
1461;DHT22;724;49.910;12.530;2023-03-14T11:22:26;9.50;99.90
1461;DHT22;724;49.910;12.530;2023-03-14T11:25:07;9.50;99.90
1461;DHT22;724;49.910;12.530;2023-03-14T11:27:42;9.50;99.90
1461;DHT22;724;49.910;12.530;2023-03-14T11:30:18;9.50;99.90
1461;DHT22;724;49.910;12.530;2023-03-14T11:32:48;9.20;99.90
1461;DHT22;724;49.910;12.530;2023-03-14T11:35:22;9.20;99.90
1461;DHT22;724;49.910;12.530;2023-03-14T11:37:54;9.20;99.90
1461;DHT22;724;49.910;12.530;2023-03-14T11:40:24;9.00;99.90
1461;DHT22;724;49.910;12.530;2023-03-14T11:42:59;8.90;99.90
1461;DHT22;724;49.910;12.530;2023-03-14T11:45:32;8.70;1.00
1461;DHT22;724;49.910;12.530;2023-03-14T11:48:19;8.50;1.00
1461;DHT22;724;49.910;12.530;2023-03-14T11:50:52;8.60;1.00
1461;DHT22;724;49.910;12.530;2023-03-14T11:53:24;8.50;1.00
1461;DHT22;724;49.910;12.530;2023-03-14T11:55:52;8.80;1.00
1461;DHT22;724;49.910;12.530;2023-03-14T11:58:22;9.50;1.00
1461;DHT22;724;49.910;12.530;2023-03-14T12:00:50;9.60;1.00
1461;DHT22;724;49.910;12.530;2023-03-14T12:03:26;9.60;1.00
1461;DHT22;724;49.910;12.530;2023-03-14T12:06:02;9.50;1.00
1461;DHT22;724;49.910;12.530;2023-03-14T12:08:39;9.40;1.00
1461;DHT22;724;49.910;12.530;2023-03-14T12:11:13;9.60;1.00
1461;DHT22;724;49.910;12.530;2023-03-14T12:13:46;9.70;1.00
1461;DHT22;724;49.910;12.530;2023-03-14T12:16:27;9.30;1.00
1461;DHT22;724;49.910;12.530;2023-03-14T12:18:56;9.00;1.00
1461;DHT22;724;49.910;12.530;2023-03-14T12:21:28;9.00;1.00
1461;DHT22;724;49.910;12.530;2023-03-14T12:24:18;9.10;1.00
1461;DHT22;724;49.910;12.530;2023-03-14T12:26:53;9.10;1.00
1461;DHT22;724;49.910;12.530;2023-03-14T12:29:20;9.40;1.00
1461;DHT22;724;49.910;12.530;2023-03-14T12:31:48;9.40;1.00
1461;DHT22;724;49.910;12.530;2023-03-14T12:34:29;9.10;1.00
1461;DHT22;724;49.910;12.530;2023-03-14T12:37:05;8.80;1.00
1461;DHT22;724;49.910;12.530;2023-03-14T12:39:43;8.90;1.00
1461;DHT22;724;49.910;12.530;2023-03-14T12:42:20;8.50;1.00
1461;DHT22;724;49.910;12.530;2023-03-14T12:44:49;8.60;1.00
1461;DHT22;724;49.910;12.530;2023-03-14T12:47:47;8.50;1.00
1461;DHT22;724;49.910;12.530;2023-03-14T12:50:24;8.80;1.00
1461;DHT22;724;49.910;12.530;2023-03-14T12:55:49;9.00;1.00
1461;DHT22;724;49.910;12.530;2023-03-14T12:58:24;9.10;1.00
1461;DHT22;724;49.910;12.530;2023-03-14T13:00:58;9.00;1.00
1461;DHT22;724;49.910;12.530;2023-03-14T13:03:36;8.90;1.00
1461;DHT22;724;49.910;12.530;2023-03-14T13:06:03;8.90;1.00
1461;DHT22;724;49.910;12.530;2023-03-14T13:08:37;8.80;1.00
1461;DHT22;724;49.910;12.530;2023-03-14T13:11:08;8.80;1.00
1461;DHT22;724;49.910;12.530;2023-03-14T13:13:37;8.70;1.00
1461;DHT22;724;49.910;12.530;2023-03-14T13:16:14;8.80;1.00
1461;DHT22;724;49.910;12.530;2023-03-14T13:18:44;8.80;1.00
1461;DHT22;724;49.910;12.530;2023-03-14T13:21:14;8.80;1.00
1461;DHT22;724;49.910;12.530;2023-03-14T13:23:57;8.90;1.00
1461;DHT22;724;49.910;12.530;2023-03-14T13:26:32;9.10;1.00
1461;DHT22;724;49.910;12.530;2023-03-14T13:29:08;9.20;1.00
1461;DHT22;724;49.910;12.530;2023-03-14T13:31:35;9.30;1.00
1461;DHT22;724;49.910;12.530;2023-03-14T13:34:06;9.50;1.00
1461;DHT22;724;49.910;12.530;2023-03-14T13:36:35;9.50;1.00
1461;DHT22;724;49.910;12.530;2023-03-14T13:39:02;9.30;1.00
1461;DHT22;724;49.910;12.530;2023-03-14T13:41:31;9.40;1.00
1461;DHT22;724;49.910;12.530;2023-03-14T13:44:03;9.30;1.00
1461;DHT22;724;49.910;12.530;2023-03-14T13:46:34;9.10;1.00
1461;DHT22;724;49.910;12.530;2023-03-14T13:49:05;9.00;1.00
1461;DHT22;724;49.910;12.530;2023-03-14T13:51:33;9.30;1.00
1461;DHT22;724;49.910;12.530;2023-03-14T13:54:00;9.30;1.00
1461;DHT22;724;49.910;12.530;2023-03-14T13:56:32;9.50;1.00
1461;DHT22;724;49.910;12.530;2023-03-14T13:58:59;9.40;1.00
1461;DHT22;724;49.910;12.530;2023-03-14T14:01:27;9.40;1.00
1461;DHT22;724;49.910;12.530;2023-03-14T14:03:58;9.40;1.00
1461;DHT22;724;49.910;12.530;2023-03-14T14:06:30;9.20;1.00
1461;DHT22;724;49.910;12.530;2023-03-14T14:09:00;9.30;1.00
1461;DHT22;724;49.910;12.530;2023-03-14T14:11:37;9.30;1.00
1461;DHT22;724;49.910;12.530;2023-03-14T14:14:07;9.20;1.00
1461;DHT22;724;49.910;12.530;2023-03-14T14:16:36;9.10;1.00
1461;DHT22;724;49.910;12.530;2023-03-14T14:19:03;9.20;1.00
1461;DHT22;724;49.910;12.530;2023-03-14T14:21:30;9.00;99.90
1461;DHT22;724;49.910;12.530;2023-03-14T14:23:58;9.00;99.90
1461;DHT22;724;49.910;12.530;2023-03-14T14:26:26;9.20;1.00
1461;DHT22;724;49.910;12.530;2023-03-14T14:29:04;9.30;1.00
1461;DHT22;724;49.910;12.530;2023-03-14T14:31:31;9.50;1.00
1461;DHT22;724;49.910;12.530;2023-03-14T14:33:59;9.20;1.00
1461;DHT22;724;49.910;12.530;2023-03-14T14:36:28;9.00;1.00
1461;DHT22;724;49.910;12.530;2023-03-14T14:39:00;9.00;1.00
1461;DHT22;724;49.910;12.530;2023-03-14T14:41:30;8.90;1.00
1461;DHT22;724;49.910;12.530;2023-03-14T14:43:58;8.90;1.00
1461;DHT22;724;49.910;12.530;2023-03-14T14:46:28;8.70;1.00
1461;DHT22;724;49.910;12.530;2023-03-14T14:48:57;8.50;1.00
1461;DHT22;724;49.910;12.530;2023-03-14T14:51:32;8.40;1.00
1461;DHT22;724;49.910;12.530;2023-03-14T14:54:03;8.30;99.90
1461;DHT22;724;49.910;12.530;2023-03-14T14:56:35;8.10;1.00
1461;DHT22;724;49.910;12.530;2023-03-14T14:59:03;7.80;99.90
1461;DHT22;724;49.910;12.530;2023-03-14T15:01:35;7.40;99.90
1461;DHT22;724;49.910;12.530;2023-03-14T15:04:08;7.30;1.00
1461;DHT22;724;49.910;12.530;2023-03-14T15:06:36;7.20;1.00
1461;DHT22;724;49.910;12.530;2023-03-14T15:09:05;7.20;99.90
1461;DHT22;724;49.910;12.530;2023-03-14T15:11:32;7.10;99.90
1461;DHT22;724;49.910;12.530;2023-03-14T15:13:58;7.10;99.90
1461;DHT22;724;49.910;12.530;2023-03-14T15:16:28;7.00;1.00
1461;DHT22;724;49.910;12.530;2023-03-14T15:18:58;6.90;1.00
1461;DHT22;724;49.910;12.530;2023-03-14T15:21:26;6.80;1.00
1461;DHT22;724;49.910;12.530;2023-03-14T15:23:54;6.70;1.00
1461;DHT22;724;49.910;12.530;2023-03-14T15:26:23;6.70;99.90
1461;DHT22;724;49.910;12.530;2023-03-14T15:28:50;6.60;50.10
1461;DHT22;724;49.910;12.530;2023-03-14T15:31:18;6.80;99.90
1461;DHT22;724;49.910;12.530;2023-03-14T15:33:45;6.70;99.90
1461;DHT22;724;49.910;12.530;2023-03-14T15:36:21;6.50;99.90
1461;DHT22;724;49.910;12.530;2023-03-14T15:38:49;6.60;1.00
1461;DHT22;724;49.910;12.530;2023-03-14T15:41:16;6.50;1.00
1461;DHT22;724;49.910;12.530;2023-03-14T15:43:43;6.50;1.00
1461;DHT22;724;49.910;12.530;2023-03-14T15:46:10;6.50;1.00
1461;DHT22;724;49.910;12.530;2023-03-14T15:48:37;6.50;99.90
1461;DHT22;724;49.910;12.530;2023-03-14T15:51:04;6.40;99.90
1461;DHT22;724;49.910;12.530;2023-03-14T15:53:33;6.50;92.70
1461;DHT22;724;49.910;12.530;2023-03-14T15:56:02;6.30;99.90
1461;DHT22;724;49.910;12.530;2023-03-14T15:58:29;6.20;99.90
1461;DHT22;724;49.910;12.530;2023-03-14T16:00:59;6.30;99.90
1461;DHT22;724;49.910;12.530;2023-03-14T16:03:26;6.30;99.90
1461;DHT22;724;49.910;12.530;2023-03-14T16:05:52;6.20;99.90
1461;DHT22;724;49.910;12.530;2023-03-14T16:08:19;6.20;66.10
1461;DHT22;724;49.910;12.530;2023-03-14T16:10:48;6.10;77.20
1461;DHT22;724;49.910;12.530;2023-03-14T16:13:15;6.00;1.00
1461;DHT22;724;49.910;12.530;2023-03-14T16:15:42;6.00;1.00
1461;DHT22;724;49.910;12.530;2023-03-14T16:18:18;6.10;1.00
1461;DHT22;724;49.910;12.530;2023-03-14T16:20:51;6.00;1.00
1461;DHT22;724;49.910;12.530;2023-03-14T16:23:18;5.90;1.00
1461;DHT22;724;49.910;12.530;2023-03-14T16:25:46;5.90;99.90
1461;DHT22;724;49.910;12.530;2023-03-14T16:28:13;5.90;99.90
1461;DHT22;724;49.910;12.530;2023-03-14T16:30:40;5.80;92.90
1461;DHT22;724;49.910;12.530;2023-03-14T16:33:07;5.80;1.00
1461;DHT22;724;49.910;12.530;2023-03-14T16:35:34;5.80;99.90
1461;DHT22;724;49.910;12.530;2023-03-14T16:38:01;5.60;99.90
1461;DHT22;724;49.910;12.530;2023-03-14T16:40:28;5.60;99.90
1461;DHT22;724;49.910;12.530;2023-03-14T16:42:56;5.50;99.90
1461;DHT22;724;49.910;12.530;2023-03-14T16:45:23;5.50;99.90
1461;DHT22;724;49.910;12.530;2023-03-14T16:47:50;5.40;99.90
1461;DHT22;724;49.910;12.530;2023-03-14T16:50:19;5.40;99.90
1461;DHT22;724;49.910;12.530;2023-03-14T16:52:46;5.50;1.00
1461;DHT22;724;49.910;12.530;2023-03-14T16:55:14;5.30;1.00
1461;DHT22;724;49.910;12.530;2023-03-14T16:57:41;5.30;1.00
1461;DHT22;724;49.910;12.530;2023-03-14T17:00:10;5.30;1.00
1461;DHT22;724;49.910;12.530;2023-03-14T17:02:37;5.20;1.00